Latest Weather Observations for Mount Ginini

IDN60901

Issued at 5:11 pm EST Saturday 18 April 2015 (issued every 10 minutes, with the page automatically refreshed every 10 minutes)

About weather observations | Map of Canberra area stations | Latest observations for Canberra area | Other Formats
Station Details ID: 070349 Name: MOUNT GININI AWS Lat: -35.53 Lon: 148.77 Height: 1760.0 m
Data from the previous 72 hours. | See also: Recent months at Mount Ginini
Date/Time
EST
Tmp

°C
App
Tmp
°C
Dew
Point
°C
Rel
Hum
%
Delta-T

°C
Wind Press
QNH
hPa
Press
MSL
hPa
Rain
since
9 am
mm
Dir
 
Spd
km/h
Gust
km/h
Spd
kts
Gust
kts
18/05:00pm 9.4 4.3 9.1 98 0.2 NW 26 43 14 23 - - 1.6
18/04:30pm 9.6 5.3 9.3 98 0.2 WNW 22 39 12 21 - - 0.8
18/04:00pm 9.6 5.3 9.3 98 0.2 WNW 22 43 12 23 - - 0.6
18/03:30pm 10.0 5.4 9.7 98 0.2 WNW 24 39 13 21 - - 0.6
18/03:00pm 9.9 5.3 9.6 98 0.2 NW 24 44 13 24 - - 0.4
18/02:30pm 9.8 4.4 9.5 98 0.2 WNW 28 50 15 27 - - 0.0
18/02:06pm 9.9 4.5 9.6 98 0.2 NW 28 46 15 25 - - 0.0
18/02:00pm 9.9 4.9 9.6 98 0.2 NW 26 46 14 25 - - 0.0
18/01:30pm 9.9 4.9 9.6 98 0.2 NW 26 43 14 23 - - 0.0
18/01:00pm 10.0 6.2 9.7 98 0.2 NW 20 35 11 19 - - 0.0
18/12:30pm 9.9 5.3 9.6 98 0.2 NW 24 44 13 24 - - 0.0
18/12:00pm 10.1 5.9 9.8 98 0.2 WNW 22 41 12 22 - - 0.0
18/11:30am 9.8 5.5 9.5 98 0.2 NW 22 41 12 22 - - 0.0
18/11:00am 9.6 4.5 9.3 98 0.2 NW 26 44 14 24 - - 0.0
18/10:39am 9.4 3.9 9.1 98 0.2 NW 28 54 15 29 - - 0.0
18/10:30am 9.5 4.8 9.2 98 0.2 NW 24 52 13 28 - - 0.0
18/10:00am 9.5 4.0 9.2 98 0.2 NW 28 48 15 26 - - 0.0
18/09:30am 9.5 3.6 9.2 98 0.2 NW 30 61 16 33 - - 0.0
18/09:00am 9.5 3.6 9.2 98 0.2 NW 30 56 16 30 - - 9.2
18/08:30am 9.6 3.8 9.3 98 0.2 NW 30 52 16 28 - - 9.2
18/08:00am 9.6 3.2 9.3 98 0.2 NW 33 57 18 31 - - 9.2
18/07:30am 9.6 2.4 9.3 98 0.2 NW 37 57 20 31 - - 9.2
18/07:00am 9.6 2.1 9.3 98 0.2 NW 39 69 21 37 - - 9.2
18/06:30am 9.7 1.4 9.4 98 0.2 NW 43 72 23 39 - - 9.2
18/06:00am 10.0 3.3 9.7 98 0.2 NW 35 72 19 39 - - 9.2
18/05:30am 10.1 2.7 9.8 98 0.2 NW 39 65 21 35 - - 9.2
18/05:00am 10.2 4.0 9.9 98 0.2 NW 33 59 18 32 - - 9.2
18/04:30am 10.1 3.8 9.8 98 0.2 NW 33 59 18 32 - - 9.2
18/04:00am 10.3 4.1 10.0 98 0.2 NNW 33 59 18 32 - - 9.2
18/03:30am 10.5 4.0 10.2 98 0.2 NNW 35 65 19 35 - - 9.2
18/03:00am 10.7 5.5 10.4 98 0.2 NNW 28 56 15 30 - - 9.2
18/02:30am 10.8 5.3 10.5 98 0.2 NNW 30 52 16 28 - - 9.2
18/02:11am 10.9 5.8 10.6 98 0.2 NNW 28 46 15 25 - - 9.2
18/02:00am 11.0 6.7 10.7 98 0.2 NNW 24 43 13 23 - - 9.2
18/01:49am 11.1 6.1 10.8 98 0.2 NNW 28 50 15 27 - - 9.2
18/01:30am 11.1 6.4 10.8 98 0.2 NNW 26 44 14 24 - - 9.2
18/01:00am 11.0 7.1 10.7 98 0.2 NNW 22 37 12 20 - - 9.2
18/12:30am 10.1 6.5 9.8 98 0.2 NW 19 33 10 18 - - 8.8
18/12:00am 10.0 6.2 9.7 98 0.2 NW 20 35 11 19 - - 8.8
 
Date/Time
EST
Tmp

°C
App
Tmp
°C
Dew
Point
°C
Rel
Hum
%
Delta-T

°C
Wind Press
QNH
hPa
Press
MSL
hPa
Rain
since
9 am
mm
Dir
 
Spd
km/h
Gust
km/h
Spd
kts
Gust
kts
17/11:30pm 10.0 5.4 9.7 98 0.2 NW 24 44 13 24 - - 8.8
17/11:00pm 9.9 5.7 9.6 98 0.2 NW 22 39 12 21 - - 8.4
17/10:30pm 10.0 5.8 9.7 98 0.2 NW 22 41 12 22 - - 8.4
17/10:00pm 9.9 5.3 9.6 98 0.2 NW 24 43 13 23 - - 8.4
17/09:30pm 9.8 5.2 9.5 98 0.2 NW 24 43 13 23 - - 8.4
17/09:00pm 9.8 5.5 9.5 98 0.2 NW 22 39 12 21 - - 8.4
17/08:30pm 9.8 5.9 9.5 98 0.2 NW 20 37 11 20 - - 8.4
17/08:00pm 9.6 5.7 9.3 98 0.2 NW 20 37 11 20 - - 8.2
17/07:30pm 9.6 5.9 9.3 98 0.2 NW 19 32 10 17 - - 8.2
17/07:00pm 9.5 5.5 9.2 98 0.2 NW 20 37 11 20 - - 7.8
17/06:30pm 9.5 5.5 9.2 98 0.2 NNW 20 37 11 20 - - 6.8
17/06:00pm 9.4 6.0 9.1 98 0.2 NNW 17 33 9 18 - - 6.4
17/05:30pm 9.3 6.2 9.0 98 0.2 NW 15 26 8 14 - - 4.6
17/05:00pm 9.2 6.9 8.9 98 0.2 NW 11 20 6 11 - - 4.6
17/04:30pm 9.3 7.0 9.0 98 0.2 NW 11 20 6 11 - - 3.8
17/04:00pm 9.6 7.4 9.3 98 0.2 NW 11 19 6 10 - - 3.4
17/03:30pm 9.6 7.4 9.3 98 0.2 NNW 11 20 6 11 - - 3.2
17/03:00pm 9.6 7.0 9.5 99 0.1 NNW 13 26 7 14 - - 2.8
17/02:30pm 9.5 6.9 9.4 99 0.1 NNW 13 26 7 14 - - 2.2
17/02:00pm 9.7 7.9 9.6 99 0.1 NNW 9 20 5 11 - - 2.0
17/01:30pm 9.5 7.3 9.4 99 0.1 NNW 11 26 6 14 - - 1.8
17/01:00pm 9.9 7.8 9.8 99 0.1 NW 11 20 6 11 - - 1.8
17/12:30pm 9.8 7.7 9.7 99 0.1 NW 11 19 6 10 - - 1.6
17/12:00pm 10.1 7.7 9.9 99 0.1 NW 13 24 7 13 - - 1.4
17/11:30am 9.4 6.4 9.3 99 0.1 NW 15 28 8 15 - - 1.2
17/11:00am 9.4 6.8 9.3 99 0.1 NNW 13 28 7 15 - - 1.0
17/10:30am 8.9 6.5 8.8 99 0.1 NNW 11 26 6 14 - - 0.8
17/10:00am 8.9 6.2 8.8 99 0.1 N 13 30 7 16 - - 0.4
17/09:30am 9.0 6.3 8.9 99 0.1 NNW 13 30 7 16 - - 0.4
17/09:00am 8.2 5.3 8.1 99 0.1 N 13 28 7 15 - - 5.0
17/08:30am 8.0 5.4 7.9 99 0.1 N 11 22 6 12 - - 4.4
17/08:00am 7.8 5.6 7.7 99 0.1 NNW 9 20 5 11 - - 3.8
17/07:30am 7.4 4.7 7.3 99 0.1 NNW 11 20 6 11 - - 2.6
17/07:00am 7.0 4.6 6.9 99 0.1 N 9 19 5 10 - - 1.6
17/06:30am 6.6 4.1 6.5 99 0.1 NNE 9 17 5 9 - - 1.4
17/06:00am 6.5 3.9 6.2 98 0.2 NNE 9 15 5 8 - - 0.4
17/05:30am 6.5 4.3 6.2 98 0.2 NNE 7 13 4 7 - - 0.0
17/05:00am 6.3 3.6 5.7 96 0.3 NNE 9 15 5 8 - - 0.0
17/04:30am 7.0 4.4 6.3 95 0.4 NNW 9 19 5 10 - - 0.0
17/04:00am 7.4 4.8 6.2 92 0.6 NNW 9 19 5 10 - - 0.0
17/03:30am 7.7 5.1 4.3 79 1.6 NNW 7 15 4 8 - - 0.0
17/03:00am 7.7 5.0 3.9 77 1.8 NNE 7 13 4 7 - - 0.0
17/02:30am 7.8 4.8 4.0 77 1.8 NNE 9 17 5 9 - - 0.0
17/02:00am 8.2 5.2 2.0 65 2.9 NNE 7 13 4 7 - - 0.0
17/01:30am 8.3 4.9 1.7 63 3.0 NNE 9 13 5 7 - - 0.0
17/01:00am 8.3 4.8 1.5 62 3.1 NNW 9 19 5 10 - - 0.0
17/12:30am 8.8 4.9 1.2 59 3.5 W 11 30 6 16 - - 0.0
17/12:00am 9.6 5.9 4.4 70 2.6 W 13 26 7 14 - - 0.0
 
Date/Time
EST
Tmp

°C
App
Tmp
°C
Dew
Point
°C
Rel
Hum
%
Delta-T

°C
Wind Press
QNH
hPa
Press
MSL
hPa
Rain
since
9 am
mm
Dir
 
Spd
km/h
Gust
km/h
Spd
kts
Gust
kts
16/11:30pm 9.6 5.8 3.8 67 2.8 WNW 13 22 7 12 - - 0.0
16/11:00pm 9.8 6.2 3.1 63 3.2 W 11 20 6 11 - - 0.0
16/10:30pm 9.8 6.3 3.3 64 3.1 W 11 19 6 10 - - 0.0
16/10:00pm 9.9 5.7 3.6 65 3.1 W 15 22 8 12 - - 0.0
16/09:30pm 9.9 5.4 4.3 68 2.8 W 17 24 9 13 - - 0.0
16/09:00pm 9.9 5.5 4.7 70 2.6 W 17 26 9 14 - - 0.0
16/08:30pm 10.2 5.8 4.8 69 2.7 W 17 30 9 16 - - 0.0
16/08:00pm 10.1 6.0 4.5 68 2.8 W 15 22 8 12 - - 0.0
16/07:30pm 9.8 6.9 4.6 70 2.6 WNW 9 13 5 7 - - 0.0
16/07:00pm 10.0 7.3 5.4 73 2.3 W 9 17 5 9 - - 0.0
16/06:30pm 10.2 7.5 5.8 74 2.2 W 9 19 5 10 - - 0.0
16/06:00pm 10.3 6.6 6.5 77 2.0 W 15 24 8 13 - - 0.0
16/05:30pm 10.9 7.5 6.1 72 2.5 W 13 24 7 13 - - 0.0
16/05:00pm 12.4 8.7 6.5 67 3.1 W 15 26 8 14 - - 0.0
16/04:30pm 13.8 10.9 6.4 61 3.9 W 11 24 6 13 - - 0.0
16/04:00pm 14.7 11.4 6.5 58 4.4 W 13 26 7 14 - - 0.0
16/03:30pm 15.7 12.8 6.7 55 4.8 W 11 26 6 14 - - 0.0
16/03:00pm 15.6 12.4 5.2 50 5.4 WNW 11 24 6 13 - - 0.0
16/02:30pm 15.9 12.3 4.9 48 5.7 W 13 26 7 14 - - 0.0
16/02:00pm 16.1 12.1 4.8 47 5.9 W 15 33 8 18 - - 0.0
16/01:30pm 15.9 11.4 6.1 52 5.2 W 19 35 10 19 - - 0.0
16/01:00pm 15.7 11.9 7.5 58 4.5 W 17 35 9 19 - - 0.0
16/12:30pm 15.4 11.0 7.2 58 4.4 W 20 41 11 22 - - 0.0
16/12:00pm 15.2 10.8 7.5 60 4.2 W 20 41 11 22 - - 0.0
16/11:30am 14.5 10.1 7.3 62 3.9 W 20 39 11 21 - - 0.0
16/11:00am 13.9 8.9 7.9 67 3.3 W 24 50 13 27 - - 0.0
16/10:30am 13.1 8.1 8.2 72 2.7 W 24 43 13 23 - - 0.0
16/10:00am 12.5 8.0 8.6 77 2.1 W 22 39 12 21 - - 0.0
16/09:30am 12.3 7.7 8.2 76 2.2 W 22 46 12 25 - - 0.0
16/09:00am 11.5 6.6 8.5 82 1.6 WSW 24 50 13 27 - - 3.8
16/08:30am 10.9 7.4 10.3 96 0.3 WSW 19 37 10 20 - - 3.8
16/08:00am 9.7 6.3 9.2 97 0.3 W 17 30 9 16 - - 3.8
16/07:30am 9.3 5.9 9.0 98 0.2 W 17 26 9 14 - - 3.8
16/07:00am 8.6 5.1 8.6 100 0.0 W 17 32 9 17 - - 3.8
16/06:30am 8.3 4.7 8.3 100 0.0 W 17 30 9 16 - - 3.8
16/06:00am 8.2 4.6 8.2 100 0.0 W 17 30 9 16 - - 3.8
16/05:30am 8.5 4.6 8.5 100 0.0 WNW 19 35 10 19 - - 3.8
16/05:00am 8.6 4.1 8.6 100 0.0 WNW 22 39 12 21 - - 3.8
16/04:30am 8.7 4.8 8.7 100 0.0 WNW 19 41 10 22 - - 3.8
16/04:00am 8.9 4.8 8.8 99 0.1 WNW 20 35 11 19 - - 3.8
16/03:30am 8.9 5.4 8.9 100 0.0 WNW 17 33 9 18 - - 3.8
16/03:00am 9.0 5.5 8.9 99 0.1 WNW 17 32 9 17 - - 3.8
16/02:30am 9.4 5.6 9.1 98 0.2 WNW 19 37 10 20 - - 3.8
16/02:00am 9.5 6.2 9.4 99 0.1 WNW 17 32 9 17 - - 3.8
16/01:30am 9.5 5.6 9.4 99 0.1 NW 20 33 11 18 - - 3.8
16/01:00am 9.7 5.8 9.4 98 0.2 NW 20 35 11 19 - - 3.8
16/12:30am 9.8 5.5 9.5 98 0.2 NW 22 41 12 22 - - 3.8
16/12:00am 10.0 6.2 9.7 98 0.2 NW 20 37 11 20 - - 3.8
 
Date/Time
EST
Tmp

°C
App
Tmp
°C
Dew
Point
°C
Rel
Hum
%
Delta-T

°C
Wind Press
QNH
hPa
Press
MSL
hPa
Rain
since
9 am
mm
Dir
 
Spd
km/h
Gust
km/h
Spd
kts
Gust
kts
15/11:30pm 10.4 6.2 9.9 97 0.3 NNW 22 37 12 20 - - 3.8
15/11:00pm 10.9 7.3 10.4 97 0.3 NNW 20 39 11 21 - - 3.8
15/10:30pm 11.0 7.6 10.4 96 0.3 NNW 19 37 10 20 - - 3.8
15/10:00pm 11.3 7.4 10.7 96 0.3 NNW 22 37 12 20 - - 3.8
15/09:30pm 11.1 7.7 10.5 96 0.3 NNW 19 32 10 17 - - 3.8
15/09:00pm 10.8 7.3 10.3 97 0.3 NNW 19 33 10 18 - - 3.8
15/08:30pm 10.8 7.3 10.3 97 0.3 NNW 19 33 10 18 - - 3.8
15/08:00pm 10.7 7.2 10.2 97 0.3 NNW 19 35 10 19 - - 3.8
15/07:30pm 10.8 7.3 10.2 96 0.3 NNW 19 32 10 17 - - 3.8
15/07:00pm 10.7 7.5 10.1 96 0.3 NNW 17 28 9 15 - - 3.8
15/06:30pm 10.9 7.3 10.4 97 0.3 NW 20 32 11 17 - - 3.8
15/06:00pm 10.8 7.2 10.5 98 0.2 NW 20 41 11 22 - - 3.8
15/05:30pm 10.6 7.0 10.0 96 0.3 NW 19 33 10 18 - - 3.8

Latest Capital City Observations: Canberra | Sydney | Melbourne | Brisbane | Adelaide | Perth | Hobart | Darwin

Other Formats:

Comma delimited format used in spreadsheet applications
http://www.bom.gov.au/fwo/IDN60903/IDN60903.95925.axf

JavaScript Object Notation format (JSON) in row-major order
http://www.bom.gov.au/fwo/IDN60903/IDN60903.95925.json